sensor_id;sensor_type;location;lat;lon;timestamp;pressure;altitude;pressure_sealevel;temperature;humidity
58668;BME280;59852;43.086;25.634;2023-12-20T00:00:05;99163.28;;;3.24;76.28
58668;BME280;59852;43.086;25.634;2023-12-20T00:02:30;99163.09;;;3.30;76.96
58668;BME280;59852;43.086;25.634;2023-12-20T00:04:56;99158.19;;;3.23;77.10
58668;BME280;59852;43.086;25.634;2023-12-20T00:07:21;99157.66;;;3.13;77.91
58668;BME280;59852;43.086;25.634;2023-12-20T00:09:46;99155.97;;;3.37;77.55
58668;BME280;59852;43.086;25.634;2023-12-20T00:12:12;99147.44;;;3.10;76.44
58668;BME280;59852;43.086;25.634;2023-12-20T00:14:37;99147.59;;;3.05;76.50
58668;BME280;59852;43.086;25.634;2023-12-20T00:17:02;99139.78;;;3.07;76.70
58668;BME280;59852;43.086;25.634;2023-12-20T00:19:28;99131.28;;;3.03;76.50
58668;BME280;59852;43.086;25.634;2023-12-20T00:21:53;99126.69;;;3.11;76.15
58668;BME280;59852;43.086;25.634;2023-12-20T00:24:19;99127.06;;;3.01;76.04
58668;BME280;59852;43.086;25.634;2023-12-20T00:26:45;99130.56;;;3.00;76.63
58668;BME280;59852;43.086;25.634;2023-12-20T00:29:10;99124.06;;;3.13;75.95
58668;BME280;59852;43.086;25.634;2023-12-20T00:31:36;99118.53;;;2.99;76.55
58668;BME280;59852;43.086;25.634;2023-12-20T00:34:01;99122.09;;;2.96;76.06
58668;BME280;59852;43.086;25.634;2023-12-20T00:36:26;99127.19;;;2.98;76.00
58668;BME280;59852;43.086;25.634;2023-12-20T00:38:52;99124.06;;;2.88;76.27
58668;BME280;59852;43.086;25.634;2023-12-20T00:41:17;99123.19;;;2.63;77.63
58668;BME280;59852;43.086;25.634;2023-12-20T00:43:43;99113.75;;;2.88;78.01
58668;BME280;59852;43.086;25.634;2023-12-20T00:46:09;99115.22;;;2.95;78.09
58668;BME280;59852;43.086;25.634;2023-12-20T00:48:35;99107.03;;;2.82;78.62
58668;BME280;59852;43.086;25.634;2023-12-20T00:51:00;99108.72;;;2.83;77.03
58668;BME280;59852;43.086;25.634;2023-12-20T00:53:25;99100.78;;;2.90;76.76
58668;BME280;59852;43.086;25.634;2023-12-20T00:55:50;99099.50;;;3.01;76.26
58668;BME280;59852;43.086;25.634;2023-12-20T00:58:16;99110.72;;;3.00;76.88
58668;BME280;59852;43.086;25.634;2023-12-20T01:00:42;99106.66;;;2.68;77.55
58668;BME280;59852;43.086;25.634;2023-12-20T01:03:08;99101.81;;;2.84;77.31
58668;BME280;59852;43.086;25.634;2023-12-20T01:05:33;99096.28;;;2.70;78.31
58668;BME280;59852;43.086;25.634;2023-12-20T01:07:58;99091.97;;;2.70;79.07
58668;BME280;59852;43.086;25.634;2023-12-20T01:10:24;99081.50;;;2.73;77.48
58668;BME280;59852;43.086;25.634;2023-12-20T01:12:53;99079.75;;;2.75;77.01
58668;BME280;59852;43.086;25.634;2023-12-20T01:15:18;99076.81;;;2.84;77.01
58668;BME280;59852;43.086;25.634;2023-12-20T01:17:43;99078.94;;;2.73;77.35
58668;BME280;59852;43.086;25.634;2023-12-20T01:20:09;99086.19;;;2.62;78.16
58668;BME280;59852;43.086;25.634;2023-12-20T01:22:37;99075.63;;;2.70;76.73
58668;BME280;59852;43.086;25.634;2023-12-20T01:25:02;99075.94;;;2.85;76.38
58668;BME280;59852;43.086;25.634;2023-12-20T01:27:28;99065.22;;;2.71;76.58
58668;BME280;59852;43.086;25.634;2023-12-20T01:29:54;99059.63;;;2.83;76.18
58668;BME280;59852;43.086;25.634;2023-12-20T01:32:19;99056.59;;;2.97;76.48
58668;BME280;59852;43.086;25.634;2023-12-20T01:34:44;99058.13;;;2.78;76.60
58668;BME280;59852;43.086;25.634;2023-12-20T01:37:10;99055.53;;;2.78;75.89
58668;BME280;59852;43.086;25.634;2023-12-20T01:39:35;99045.94;;;2.81;76.17
58668;BME280;59852;43.086;25.634;2023-12-20T01:42:00;99043.94;;;2.90;76.44
58668;BME280;59852;43.086;25.634;2023-12-20T01:44:26;99031.28;;;2.82;77.27
58668;BME280;59852;43.086;25.634;2023-12-20T01:46:52;99034.81;;;2.79;76.12
58668;BME280;59852;43.086;25.634;2023-12-20T01:49:17;99026.81;;;2.87;75.72
58668;BME280;59852;43.086;25.634;2023-12-20T01:51:42;99025.97;;;2.86;75.28
58668;BME280;59852;43.086;25.634;2023-12-20T01:54:08;99019.19;;;2.82;75.13
58668;BME280;59852;43.086;25.634;2023-12-20T01:56:34;99017.75;;;2.75;75.55
58668;BME280;59852;43.086;25.634;2023-12-20T01:58:59;99018.47;;;2.79;74.86
58668;BME280;59852;43.086;25.634;2023-12-20T02:01:25;99000.22;;;2.83;75.28
58668;BME280;59852;43.086;25.634;2023-12-20T02:03:50;98999.09;;;2.67;75.57
58668;BME280;59852;43.086;25.634;2023-12-20T02:06:17;98992.78;;;2.74;75.70
58668;BME280;59852;43.086;25.634;2023-12-20T02:08:43;98988.13;;;2.61;75.76
58668;BME280;59852;43.086;25.634;2023-12-20T02:11:08;98981.22;;;2.61;76.66
58668;BME280;59852;43.086;25.634;2023-12-20T02:13:35;98974.91;;;2.70;76.04
58668;BME280;59852;43.086;25.634;2023-12-20T02:16:00;98974.56;;;2.79;75.65
58668;BME280;59852;43.086;25.634;2023-12-20T02:18:26;98968.72;;;2.74;74.98
58668;BME280;59852;43.086;25.634;2023-12-20T02:20:51;98971.63;;;2.65;75.17
58668;BME280;59852;43.086;25.634;2023-12-20T02:23:16;98965.78;;;2.35;77.00
58668;BME280;59852;43.086;25.634;2023-12-20T02:25:42;98962.59;;;2.28;78.35
58668;BME280;59852;43.086;25.634;2023-12-20T02:28:07;98967.00;;;2.24;78.72
58668;BME280;59852;43.086;25.634;2023-12-20T02:30:32;98956.81;;;2.46;77.53
58668;BME280;59852;43.086;25.634;2023-12-20T02:32:59;98952.94;;;2.58;76.39
58668;BME280;59852;43.086;25.634;2023-12-20T02:35:25;98954.25;;;2.70;75.34
58668;BME280;59852;43.086;25.634;2023-12-20T02:37:50;98945.25;;;2.56;76.33
58668;BME280;59852;43.086;25.634;2023-12-20T02:40:15;98939.34;;;2.53;76.87
58668;BME280;59852;43.086;25.634;2023-12-20T02:42:41;98933.06;;;2.60;76.51
58668;BME280;59852;43.086;25.634;2023-12-20T02:45:06;98935.53;;;2.63;76.95
58668;BME280;59852;43.086;25.634;2023-12-20T02:47:32;98932.38;;;2.55;77.10
58668;BME280;59852;43.086;25.634;2023-12-20T02:49:57;98924.09;;;2.47;76.85
58668;BME280;59852;43.086;25.634;2023-12-20T02:52:23;98923.34;;;2.43;77.17
58668;BME280;59852;43.086;25.634;2023-12-20T02:54:49;98923.63;;;2.59;75.67
58668;BME280;59852;43.086;25.634;2023-12-20T02:57:14;98923.25;;;2.46;75.39
58668;BME280;59852;43.086;25.634;2023-12-20T02:59:39;98914.09;;;2.38;76.03
58668;BME280;59852;43.086;25.634;2023-12-20T03:02:05;98923.91;;;2.51;76.94
58668;BME280;59852;43.086;25.634;2023-12-20T03:04:30;98912.50;;;2.34;77.14
58668;BME280;59852;43.086;25.634;2023-12-20T03:06:55;98907.44;;;2.30;76.47
58668;BME280;59852;43.086;25.634;2023-12-20T03:09:21;98901.91;;;2.41;77.06
58668;BME280;59852;43.086;25.634;2023-12-20T03:11:46;98907.72;;;2.23;77.02
58668;BME280;59852;43.086;25.634;2023-12-20T03:14:11;98903.31;;;2.25;76.52
58668;BME280;59852;43.086;25.634;2023-12-20T03:16:37;98901.78;;;2.44;76.75
58668;BME280;59852;43.086;25.634;2023-12-20T03:19:02;98893.06;;;2.23;77.29
58668;BME280;59852;43.086;25.634;2023-12-20T03:21:28;98885.50;;;2.19;77.47
58668;BME280;59852;43.086;25.634;2023-12-20T03:23:53;98888.16;;;2.16;77.43
58668;BME280;59852;43.086;25.634;2023-12-20T03:26:18;98886.78;;;2.07;77.72
58668;BME280;59852;43.086;25.634;2023-12-20T03:28:44;98882.06;;;2.18;77.00
58668;BME280;59852;43.086;25.634;2023-12-20T03:31:09;98883.31;;;2.32;76.46
58668;BME280;59852;43.086;25.634;2023-12-20T03:33:35;98880.34;;;2.19;78.09
58668;BME280;59852;43.086;25.634;2023-12-20T03:36:00;98881.84;;;2.24;77.74
58668;BME280;59852;43.086;25.634;2023-12-20T03:38:25;98870.91;;;2.41;77.32
58668;BME280;59852;43.086;25.634;2023-12-20T03:40:51;98870.28;;;2.11;78.27
58668;BME280;59852;43.086;25.634;2023-12-20T03:43:16;98869.81;;;2.00;79.37
58668;BME280;59852;43.086;25.634;2023-12-20T03:45:42;98872.47;;;2.22;79.19
58668;BME280;59852;43.086;25.634;2023-12-20T03:48:07;98867.94;;;2.28;78.34
58668;BME280;59852;43.086;25.634;2023-12-20T03:50:32;98869.13;;;2.20;78.46
58668;BME280;59852;43.086;25.634;2023-12-20T03:52:58;98855.19;;;2.24;78.03
58668;BME280;59852;43.086;25.634;2023-12-20T03:55:23;98855.84;;;2.06;78.88
58668;BME280;59852;43.086;25.634;2023-12-20T03:57:48;98854.00;;;2.09;79.06
58668;BME280;59852;43.086;25.634;2023-12-20T04:00:14;98848.16;;;2.04;79.40
58668;BME280;59852;43.086;25.634;2023-12-20T04:02:40;98840.34;;;2.07;79.51
58668;BME280;59852;43.086;25.634;2023-12-20T04:05:05;98838.59;;;2.08;79.36
58668;BME280;59852;43.086;25.634;2023-12-20T04:07:31;98831.69;;;2.08;79.56
58668;BME280;59852;43.086;25.634;2023-12-20T04:09:57;98833.13;;;1.92;79.78
58668;BME280;59852;43.086;25.634;2023-12-20T04:12:22;98835.38;;;2.01;79.72
58668;BME280;59852;43.086;25.634;2023-12-20T04:14:47;98833.47;;;1.56;80.39
58668;BME280;59852;43.086;25.634;2023-12-20T04:17:13;98830.53;;;1.42;80.69
58668;BME280;59852;43.086;25.634;2023-12-20T04:19:40;98824.34;;;1.46;80.99
58668;BME280;59852;43.086;25.634;2023-12-20T04:22:06;98822.09;;;1.87;80.28
58668;BME280;59852;43.086;25.634;2023-12-20T04:24:31;98822.16;;;1.85;80.68
58668;BME280;59852;43.086;25.634;2023-12-20T04:26:56;98823.38;;;1.75;80.56
58668;BME280;59852;43.086;25.634;2023-12-20T04:29:22;98818.59;;;1.64;80.75
58668;BME280;59852;43.086;25.634;2023-12-20T04:31:47;98819.88;;;1.78;80.51
58668;BME280;59852;43.086;25.634;2023-12-20T04:34:12;98822.00;;;1.65;80.19
58668;BME280;59852;43.086;25.634;2023-12-20T04:36:38;98811.22;;;1.54;80.91
58668;BME280;59852;43.086;25.634;2023-12-20T04:39:04;98810.38;;;1.53;81.32
58668;BME280;59852;43.086;25.634;2023-12-20T04:41:29;98805.94;;;1.57;81.03
58668;BME280;59852;43.086;25.634;2023-12-20T04:43:55;98811.22;;;1.29;81.53
58668;BME280;59852;43.086;25.634;2023-12-20T04:46:20;98807.78;;;1.28;81.04
58668;BME280;59852;43.086;25.634;2023-12-20T04:48:45;98799.19;;;1.28;80.64
58668;BME280;59852;43.086;25.634;2023-12-20T04:51:11;98800.91;;;1.29;81.28
58668;BME280;59852;43.086;25.634;2023-12-20T04:53:36;98799.72;;;1.37;81.18
58668;BME280;59852;43.086;25.634;2023-12-20T04:56:01;98798.81;;;1.40;80.85
58668;BME280;59852;43.086;25.634;2023-12-20T04:58:27;98801.09;;;1.49;81.17
58668;BME280;59852;43.086;25.634;2023-12-20T05:00:52;98796.97;;;1.43;81.63
58668;BME280;59852;43.086;25.634;2023-12-20T05:03:17;98798.19;;;1.58;81.41
58668;BME280;59852;43.086;25.634;2023-12-20T05:05:43;98799.09;;;1.31;82.27
58668;BME280;59852;43.086;25.634;2023-12-20T05:08:08;98796.25;;;1.13;82.98
58668;BME280;59852;43.086;25.634;2023-12-20T05:10:33;98797.06;;;1.14;82.64
58668;BME280;59852;43.086;25.634;2023-12-20T05:12:59;98786.59;;;1.20;82.40
58668;BME280;59852;43.086;25.634;2023-12-20T05:15:25;98791.63;;;1.23;81.48
58668;BME280;59852;43.086;25.634;2023-12-20T05:17:50;98782.22;;;1.22;81.44
58668;BME280;59852;43.086;25.634;2023-12-20T05:20:16;98791.44;;;1.29;80.67
58668;BME280;59852;43.086;25.634;2023-12-20T05:22:41;98780.06;;;1.10;81.62
58668;BME280;59852;43.086;25.634;2023-12-20T05:25:06;98784.97;;;1.16;81.39
58668;BME280;59852;43.086;25.634;2023-12-20T05:27:32;98783.50;;;0.82;82.03
58668;BME280;59852;43.086;25.634;2023-12-20T05:29:57;98782.06;;;1.00;82.15
58668;BME280;59852;43.086;25.634;2023-12-20T05:32:23;98779.75;;;0.93;82.24
58668;BME280;59852;43.086;25.634;2023-12-20T05:34:48;98779.22;;;1.09;81.68
58668;BME280;59852;43.086;25.634;2023-12-20T05:37:14;98771.78;;;1.00;81.86
58668;BME280;59852;43.086;25.634;2023-12-20T05:39:39;98763.53;;;1.15;82.09
58668;BME280;59852;43.086;25.634;2023-12-20T05:42:04;98772.88;;;1.44;82.76
58668;BME280;59852;43.086;25.634;2023-12-20T05:44:30;98767.78;;;1.17;82.68
58668;BME280;59852;43.086;25.634;2023-12-20T05:46:55;98762.44;;;1.23;82.24
58668;BME280;59852;43.086;25.634;2023-12-20T05:49:20;98762.09;;;1.33;81.22
58668;BME280;59852;43.086;25.634;2023-12-20T05:51:47;98771.44;;;1.11;81.85
58668;BME280;59852;43.086;25.634;2023-12-20T05:54:12;98767.53;;;0.99;83.12
58668;BME280;59852;43.086;25.634;2023-12-20T05:56:37;98759.41;;;1.36;82.22
58668;BME280;59852;43.086;25.634;2023-12-20T05:59:03;98763.03;;;1.56;80.87
58668;BME280;59852;43.086;25.634;2023-12-20T06:01:28;98761.78;;;1.42;81.57
58668;BME280;59852;43.086;25.634;2023-12-20T06:03:53;98762.81;;;1.37;82.02
58668;BME280;59852;43.086;25.634;2023-12-20T06:06:19;98759.25;;;1.41;81.61
58668;BME280;59852;43.086;25.634;2023-12-20T06:08:44;98759.50;;;1.33;81.60
58668;BME280;59852;43.086;25.634;2023-12-20T06:11:09;98759.56;;;1.57;81.77
58668;BME280;59852;43.086;25.634;2023-12-20T06:13:35;98756.41;;;1.73;81.53
58668;BME280;59852;43.086;25.634;2023-12-20T06:16:00;98756.69;;;1.89;80.57
58668;BME280;59852;43.086;25.634;2023-12-20T06:18:26;98760.69;;;1.98;80.09
58668;BME280;59852;43.086;25.634;2023-12-20T06:20:51;98751.31;;;1.95;79.80
58668;BME280;59852;43.086;25.634;2023-12-20T06:23:16;98738.50;;;2.16;79.61
58668;BME280;59852;43.086;25.634;2023-12-20T06:25:42;98747.06;;;2.18;79.64
58668;BME280;59852;43.086;25.634;2023-12-20T06:28:07;98747.09;;;2.40;79.39
58668;BME280;59852;43.086;25.634;2023-12-20T06:30:35;98742.38;;;3.56;74.52
58668;BME280;59852;43.086;25.634;2023-12-20T06:33:00;98747.50;;;4.34;69.20
58668;BME280;59852;43.086;25.634;2023-12-20T06:35:25;98744.38;;;3.29;72.66
58668;BME280;59852;43.086;25.634;2023-12-20T06:37:51;98744.06;;;2.94;74.70
58668;BME280;59852;43.086;25.634;2023-12-20T06:40:17;98747.44;;;2.96;74.89
58668;BME280;59852;43.086;25.634;2023-12-20T06:42:43;98732.91;;;2.72;75.59
58668;BME280;59852;43.086;25.634;2023-12-20T06:45:08;98735.00;;;3.06;75.41
58668;BME280;59852;43.086;25.634;2023-12-20T06:47:34;98737.84;;;2.56;75.80
58668;BME280;59852;43.086;25.634;2023-12-20T06:49:59;98735.41;;;4.35;70.46
58668;BME280;59852;43.086;25.634;2023-12-20T06:52:25;98730.00;;;4.01;70.43
58668;BME280;59852;43.086;25.634;2023-12-20T06:54:50;98723.41;;;3.76;71.82
58668;BME280;59852;43.086;25.634;2023-12-20T06:57:16;98720.19;;;4.65;68.94
58668;BME280;59852;43.086;25.634;2023-12-20T06:59:41;98717.63;;;5.34;66.86
58668;BME280;59852;43.086;25.634;2023-12-20T07:02:08;98709.84;;;8.67;56.27
58668;BME280;59852;43.086;25.634;2023-12-20T07:04:33;98704.78;;;5.98;62.70
58668;BME280;59852;43.086;25.634;2023-12-20T07:06:58;98716.31;;;4.90;67.22
58668;BME280;59852;43.086;25.634;2023-12-20T07:09:28;98707.59;;;4.57;68.40
58668;BME280;59852;43.086;25.634;2023-12-20T07:11:53;98707.84;;;4.51;68.92
58668;BME280;59852;43.086;25.634;2023-12-20T07:14:19;98706.09;;;4.34;69.99
58668;BME280;59852;43.086;25.634;2023-12-20T07:16:44;98704.88;;;4.41;69.74
58668;BME280;59852;43.086;25.634;2023-12-20T07:19:09;98701.94;;;4.30;70.64
58668;BME280;59852;43.086;25.634;2023-12-20T07:21:35;98699.22;;;4.33;70.25
58668;BME280;59852;43.086;25.634;2023-12-20T07:24:00;98705.78;;;4.21;70.89
58668;BME280;59852;43.086;25.634;2023-12-20T07:26:25;98689.41;;;4.02;71.63
58668;BME280;59852;43.086;25.634;2023-12-20T07:28:51;98688.31;;;3.89;72.50
58668;BME280;59852;43.086;25.634;2023-12-20T07:31:16;98685.56;;;3.92;72.50
58668;BME280;59852;43.086;25.634;2023-12-20T07:33:42;98688.72;;;3.98;72.94
58668;BME280;59852;43.086;25.634;2023-12-20T07:36:07;98684.97;;;4.06;73.23
58668;BME280;59852;43.086;25.634;2023-12-20T07:38:33;98688.47;;;3.86;74.23
58668;BME280;59852;43.086;25.634;2023-12-20T07:40:58;98684.47;;;3.97;73.45
58668;BME280;59852;43.086;25.634;2023-12-20T07:43:23;98689.50;;;4.00;73.47
58668;BME280;59852;43.086;25.634;2023-12-20T07:45:49;98685.66;;;3.90;74.14
58668;BME280;59852;43.086;25.634;2023-12-20T07:48:14;98684.19;;;4.03;73.89
58668;BME280;59852;43.086;25.634;2023-12-20T07:50:39;98678.66;;;4.11;74.07
58668;BME280;59852;43.086;25.634;2023-12-20T07:53:05;98677.53;;;4.17;74.05
58668;BME280;59852;43.086;25.634;2023-12-20T07:55:30;98681.81;;;4.18;74.25
58668;BME280;59852;43.086;25.634;2023-12-20T07:57:56;98675.47;;;4.42;73.17
58668;BME280;59852;43.086;25.634;2023-12-20T08:00:21;98664.00;;;5.67;69.56
58668;BME280;59852;43.086;25.634;2023-12-20T08:02:47;98655.91;;;9.20;57.94
58668;BME280;59852;43.086;25.634;2023-12-20T08:05:12;98648.28;;;13.43;45.69
58668;BME280;59852;43.086;25.634;2023-12-20T08:07:38;98641.97;;;11.73;47.48
58668;BME280;59852;43.086;25.634;2023-12-20T08:10:04;98646.53;;;11.93;47.11
58668;BME280;59852;43.086;25.634;2023-12-20T08:12:29;98649.97;;;9.05;53.32
58668;BME280;59852;43.086;25.634;2023-12-20T08:14:55;98632.38;;;16.08;38.52
58668;BME280;59852;43.086;25.634;2023-12-20T08:17:20;98639.53;;;19.17;33.01
58668;BME280;59852;43.086;25.634;2023-12-20T08:19:45;98622.28;;;14.11;40.35
58668;BME280;59852;43.086;25.634;2023-12-20T08:22:11;98636.28;;;8.62;54.81
58668;BME280;59852;43.086;25.634;2023-12-20T08:24:36;98629.66;;;7.17;62.00
58668;BME280;59852;43.086;25.634;2023-12-20T08:27:02;98629.63;;;6.88;63.20
58668;BME280;59852;43.086;25.634;2023-12-20T08:29:27;98624.44;;;6.88;63.81
58668;BME280;59852;43.086;25.634;2023-12-20T08:31:53;98629.56;;;6.74;64.68
58668;BME280;59852;43.086;25.634;2023-12-20T08:34:19;98615.84;;;6.86;65.70
58668;BME280;59852;43.086;25.634;2023-12-20T08:36:44;98618.13;;;6.63;66.80
58668;BME280;59852;43.086;25.634;2023-12-20T08:39:09;98606.16;;;6.60;67.55
58668;BME280;59852;43.086;25.634;2023-12-20T08:41:35;98600.94;;;6.60;67.15
58668;BME280;59852;43.086;25.634;2023-12-20T08:44:00;98591.31;;;6.46;68.56
58668;BME280;59852;43.086;25.634;2023-12-20T08:46:26;98585.09;;;6.19;69.52
58668;BME280;59852;43.086;25.634;2023-12-20T08:48:51;98580.59;;;5.91;71.07
58668;BME280;59852;43.086;25.634;2023-12-20T08:51:16;98582.06;;;5.79;71.80
58668;BME280;59852;43.086;25.634;2023-12-20T08:53:42;98569.88;;;5.81;71.55
58668;BME280;59852;43.086;25.634;2023-12-20T08:56:10;98567.28;;;5.97;72.04
58668;BME280;59852;43.086;25.634;2023-12-20T08:58:35;98564.25;;;6.20;70.44
58668;BME280;59852;43.086;25.634;2023-12-20T09:01:02;98570.66;;;6.29;70.78
58668;BME280;59852;43.086;25.634;2023-12-20T09:03:27;98560.06;;;6.48;70.17
58668;BME280;59852;43.086;25.634;2023-12-20T09:05:53;98553.78;;;6.06;71.57
58668;BME280;59852;43.086;25.634;2023-12-20T09:08:18;98550.75;;;6.14;71.49
58668;BME280;59852;43.086;25.634;2023-12-20T09:10:43;98540.56;;;6.41;70.63
58668;BME280;59852;43.086;25.634;2023-12-20T09:13:09;98536.44;;;6.67;70.35
58668;BME280;59852;43.086;25.634;2023-12-20T09:15:35;98533.44;;;6.88;68.85
58668;BME280;59852;43.086;25.634;2023-12-20T09:18:00;98528.88;;;6.92;68.83
58668;BME280;59852;43.086;25.634;2023-12-20T09:20:26;98520.88;;;6.81;70.08
58668;BME280;59852;43.086;25.634;2023-12-20T09:22:52;98507.84;;;6.67;69.82
58668;BME280;59852;43.086;25.634;2023-12-20T09:25:18;98508.34;;;6.87;69.41
58668;BME280;59852;43.086;25.634;2023-12-20T09:27:43;98497.47;;;6.95;70.26
58668;BME280;59852;43.086;25.634;2023-12-20T09:30:08;98499.53;;;6.90;69.63
58668;BME280;59852;43.086;25.634;2023-12-20T09:32:34;98489.25;;;6.88;70.33
58668;BME280;59852;43.086;25.634;2023-12-20T09:35:00;98491.09;;;7.01;69.91
58668;BME280;59852;43.086;25.634;2023-12-20T09:37:26;98488.47;;;7.15;69.28
58668;BME280;59852;43.086;25.634;2023-12-20T09:39:51;98481.31;;;7.04;69.27
58668;BME280;59852;43.086;25.634;2023-12-20T09:42:18;98477.13;;;7.16;70.00
58668;BME280;59852;43.086;25.634;2023-12-20T09:44:46;98472.44;;;7.08;69.63
58668;BME280;59852;43.086;25.634;2023-12-20T09:47:12;98467.03;;;7.11;69.66
58668;BME280;59852;43.086;25.634;2023-12-20T09:49:38;98462.16;;;7.34;68.73
58668;BME280;59852;43.086;25.634;2023-12-20T09:52:04;98455.91;;;7.36;69.13
58668;BME280;59852;43.086;25.634;2023-12-20T09:54:30;98444.69;;;7.36;68.95
58668;BME280;59852;43.086;25.634;2023-12-20T09:56:55;98439.03;;;7.83;67.35
58668;BME280;59852;43.086;25.634;2023-12-20T09:59:21;98440.59;;;7.86;66.46
58668;BME280;59852;43.086;25.634;2023-12-20T10:01:46;98436.69;;;7.66;66.62
58668;BME280;59852;43.086;25.634;2023-12-20T10:04:12;98430.81;;;7.50;66.46
58668;BME280;59852;43.086;25.634;2023-12-20T10:06:41;98423.97;;;7.88;64.22
58668;BME280;59852;43.086;25.634;2023-12-20T10:09:07;98415.72;;;7.82;64.78
58668;BME280;59852;43.086;25.634;2023-12-20T10:11:36;98414.50;;;8.00;64.68
58668;BME280;59852;43.086;25.634;2023-12-20T10:14:02;98403.91;;;8.16;64.89
58668;BME280;59852;43.086;25.634;2023-12-20T10:16:28;98398.28;;;7.96;65.18
58668;BME280;59852;43.086;25.634;2023-12-20T10:18:54;98395.34;;;8.01;65.52
58668;BME280;59852;43.086;25.634;2023-12-20T10:21:19;98387.66;;;8.12;65.71
58668;BME280;59852;43.086;25.634;2023-12-20T10:23:45;98387.97;;;8.20;65.86
58668;BME280;59852;43.086;25.634;2023-12-20T10:26:10;98382.28;;;8.41;65.14
58668;BME280;59852;43.086;25.634;2023-12-20T10:28:44;98379.78;;;8.39;65.63
58668;BME280;59852;43.086;25.634;2023-12-20T10:31:09;98379.13;;;8.36;65.88
58668;BME280;59852;43.086;25.634;2023-12-20T10:33:34;98370.63;;;8.46;64.67
58668;BME280;59852;43.086;25.634;2023-12-20T10:36:00;98373.81;;;8.50;63.68
58668;BME280;59852;43.086;25.634;2023-12-20T10:38:25;98364.78;;;8.55;62.92
58668;BME280;59852;43.086;25.634;2023-12-20T10:40:54;98350.56;;;8.59;63.35
58668;BME280;59852;43.086;25.634;2023-12-20T10:43:22;98350.16;;;8.66;63.86
58668;BME280;59852;43.086;25.634;2023-12-20T10:45:48;98339.47;;;9.18;62.04
58668;BME280;59852;43.086;25.634;2023-12-20T10:48:13;98330.81;;;8.81;63.35
58668;BME280;59852;43.086;25.634;2023-12-20T10:50:40;98332.28;;;8.72;63.88
58668;BME280;59852;43.086;25.634;2023-12-20T10:53:06;98331.09;;;8.89;63.69
58668;BME280;59852;43.086;25.634;2023-12-20T10:55:32;98319.19;;;8.98;62.87
58668;BME280;59852;43.086;25.634;2023-12-20T10:58:00;98313.25;;;8.96;63.92
58668;BME280;59852;43.086;25.634;2023-12-20T11:00:25;98306.09;;;9.10;63.64
58668;BME280;59852;43.086;25.634;2023-12-20T11:02:51;98318.72;;;9.16;63.51
58668;BME280;59852;43.086;25.634;2023-12-20T11:05:25;98317.28;;;9.83;60.59
58668;BME280;59852;43.086;25.634;2023-12-20T11:08:02;98320.84;;;9.23;62.87
58668;BME280;59852;43.086;25.634;2023-12-20T11:10:35;98307.91;;;9.21;62.54
58668;BME280;59852;43.086;25.634;2023-12-20T11:13:08;98305.53;;;9.18;62.43
58668;BME280;59852;43.086;25.634;2023-12-20T11:15:36;98306.03;;;9.23;62.64
58668;BME280;59852;43.086;25.634;2023-12-20T11:18:02;98308.28;;;9.52;61.54
58668;BME280;59852;43.086;25.634;2023-12-20T11:20:38;98297.16;;;9.61;61.06
58668;BME280;59852;43.086;25.634;2023-12-20T11:23:04;98286.44;;;9.53;61.45
58668;BME280;59852;43.086;25.634;2023-12-20T11:25:29;98279.91;;;9.47;62.23
58668;BME280;59852;43.086;25.634;2023-12-20T11:28:08;98276.97;;;9.52;60.97
58668;BME280;59852;43.086;25.634;2023-12-20T11:30:40;98284.84;;;10.43;58.47
58668;BME280;59852;43.086;25.634;2023-12-20T11:33:07;98277.06;;;9.85;60.88
58668;BME280;59852;43.086;25.634;2023-12-20T11:35:33;98283.53;;;9.68;60.70
58668;BME280;59852;43.086;25.634;2023-12-20T11:37:59;98274.31;;;9.75;59.11
58668;BME280;59852;43.086;25.634;2023-12-20T11:40:25;98270.69;;;9.54;61.30
58668;BME280;59852;43.086;25.634;2023-12-20T11:42:51;98265.91;;;9.48;62.14
58668;BME280;59852;43.086;25.634;2023-12-20T11:45:21;98263.56;;;9.56;61.91
58668;BME280;59852;43.086;25.634;2023-12-20T11:47:48;98264.88;;;9.62;61.77
58668;BME280;59852;43.086;25.634;2023-12-20T11:50:20;98254.84;;;9.80;60.50
58668;BME280;59852;43.086;25.634;2023-12-20T11:52:46;98250.00;;;9.97;59.58
58668;BME280;59852;43.086;25.634;2023-12-20T11:55:12;98245.34;;;9.78;60.33
58668;BME280;59852;43.086;25.634;2023-12-20T11:57:37;98232.16;;;10.02;58.45
58668;BME280;59852;43.086;25.634;2023-12-20T12:00:03;98233.72;;;10.05;56.83
58668;BME280;59852;43.086;25.634;2023-12-20T12:02:29;98234.69;;;10.04;61.25
58668;BME280;59852;43.086;25.634;2023-12-20T12:04:55;98230.50;;;10.01;62.91
58668;BME280;59852;43.086;25.634;2023-12-20T12:07:21;98227.44;;;9.85;63.86
58668;BME280;59852;43.086;25.634;2023-12-20T12:09:47;98216.84;;;9.87;62.62
58668;BME280;59852;43.086;25.634;2023-12-20T12:12:12;98214.38;;;9.96;64.11
58668;BME280;59852;43.086;25.634;2023-12-20T12:14:38;98210.56;;;9.89;64.55
58668;BME280;59852;43.086;25.634;2023-12-20T12:17:09;98211.38;;;10.01;64.27
58668;BME280;59852;43.086;25.634;2023-12-20T12:19:34;98210.22;;;10.16;62.75
58668;BME280;59852;43.086;25.634;2023-12-20T12:22:05;98205.81;;;10.05;58.90
58668;BME280;59852;43.086;25.634;2023-12-20T12:24:36;98205.31;;;10.12;58.18
58668;BME280;59852;43.086;25.634;2023-12-20T12:27:02;98202.13;;;10.08;57.67
58668;BME280;59852;43.086;25.634;2023-12-20T12:29:27;98188.59;;;10.14;60.51
58668;BME280;59852;43.086;25.634;2023-12-20T12:31:52;98191.22;;;10.03;63.49
58668;BME280;59852;43.086;25.634;2023-12-20T12:34:18;98197.50;;;10.00;63.89
58668;BME280;59852;43.086;25.634;2023-12-20T12:36:43;98199.28;;;10.00;63.34
58668;BME280;59852;43.086;25.634;2023-12-20T12:39:12;98185.38;;;10.11;61.87
58668;BME280;59852;43.086;25.634;2023-12-20T12:41:37;98185.03;;;10.15;61.29
58668;BME280;59852;43.086;25.634;2023-12-20T12:44:03;98178.63;;;9.97;62.84
58668;BME280;59852;43.086;25.634;2023-12-20T12:46:29;98173.16;;;10.00;61.83
58668;BME280;59852;43.086;25.634;2023-12-20T12:48:54;98171.50;;;9.88;62.06
58668;BME280;59852;43.086;25.634;2023-12-20T12:51:19;98169.59;;;9.78;62.72